127 км

Карта отелей и гостиниц, располагающихся рядом с аэропортом 127 км :

127 км Красноярский край 69° 22' 33.3588" N, 85° 25' 56.82" E
127 км Красноярский край 69° 22' 33.3588" N, 85° 25' 56.82" E
Код аэродрома ИКАО
HDT4
Код аэродрома RU
ХДТ4
Координаты
N69.37593° E085.43245°
Превышение над уровнем моря
33
Основная полоса
Курс магнитный
Длина основной ВПП
Ширина основной ВПП
Покрытие основной ВПП
Освещение ВПП
Тип: 
Вертодром
Класс аэродрома: 
Принадлежность: 
ГА
Статус: 
Действующий
Сайт: 
E-mail аэродрома: 
Страна: 
Россия
Регион: 
Красноярский край
Город: 
Дополнительная информация: 

Найти трансфер

С помощью этой формы Вы можете найти трансфер из аэропорта 127 км в город, аэропорт или вокзал:

Карта места

Javascript is required to view this map.

Погода в аэропортах:

Авиационная погода в Ботсфьорде

Регион: 
Погода METAR: 
ENBS 252020Z 35013KT 8000 3000N SHRA FEW003 SCT006 BKN013 06/05 Q1013
Время наблюдения
2021-07-25T20:20:00Z
Температура C
6.0
Точка росы
5.0
Направление ветра
350
Скорость ветра (узлы)
13
Метео видимость
4.97
Явления погоды
SHRA
Условия полета
MVFR

Авиационная погода в Берлевоге

Регион: 
Погода METAR: 
ENBV 252020Z 33018KT 9999 VCSH BKN010 07/05 Q1014
Время наблюдения
2021-07-25T20:20:00Z
Температура C
7.0
Точка росы
5.0
Направление ветра
330
Скорость ветра (узлы)
18
Метео видимость
6.21
Явления погоды
VCSH
Условия полета
MVFR

Авиационная погода в аэропорту Имени Алексея Леонова

Регион: 
Погода METAR: 
UNEE 252030Z 13002MPS 2300 R23/P2000N BR NSC 19/18 Q1004 R23/CLRD60 NOSIG RMK QFE730
Время наблюдения
2021-07-25T20:30:00Z
Температура C
19.0
Точка росы
18.0
Направление ветра
130
Скорость ветра (узлы)
4
Метео видимость
1.43
Явления погоды
BR
Условия полета
IFR
Аэропорт подробнее: 

Авиационная погода в Толмачево

Регион: 
Погода METAR: 
UNNT 252030Z 14001MPS 5000 BR NSC 19/19 Q1002 R07/090070 R34/090070 NOSIG RMK QFE741/0989
Время наблюдения
2021-07-25T20:30:00Z
Температура C
19.0
Точка росы
19.0
Направление ветра
140
Скорость ветра (узлы)
2
Метео видимость
3.11
Явления погоды
BR
Условия полета
MVFR
Аэропорт подробнее: